Time;durP1;ratioP1;P1;durP2;ratioP2;P2;SDS_P1;SDS_P2;PMS_P1;PMS_P2;Temp;Humidity;BMP_temperature;BMP_pressure;BME280_temperature;BME280_humidity;BME280_pressure;Samples;Min_cycle;Max_cycle;Signal;HPM_P1;HPM_P2
2022/01/30 00:00:11;;;;;;;6.93;4.97;;;-0.50;99.90;-1.00;96565.00;;;;5004086;28;20421;-73
2022/01/30 00:02:59;;;;;;;7.47;5.50;;;-0.50;99.90;-0.90;96574.00;;;;5000815;28;20424;-73
2022/01/30 00:05:48;;;;;;;11.00;5.60;;;-0.50;99.90;-0.80;96547.00;;;;5000037;28;20441;-72
2022/01/30 00:08:39;;;;;;;8.17;4.83;;;-0.50;99.90;-0.90;96538.00;;;;5007762;28;20495;-72
2022/01/30 00:11:35;;;;;;;8.97;5.90;;;-0.50;99.90;-0.90;96535.00;;;;4995710;28;20456;-72
2022/01/30 00:14:26;;;;;;;6.47;5.23;;;-0.50;99.90;-0.90;96555.00;;;;5007359;28;20924;-73
2022/01/30 00:17:20;;;;;;;7.43;5.00;;;-0.40;99.90;-0.90;96547.00;;;;5005209;28;20536;-72
2022/01/30 00:20:17;;;;;;;5.40;3.53;;;-0.40;99.90;-0.90;96546.00;;;;5007376;28;20800;-72
2022/01/30 00:23:11;;;;;;;7.67;5.23;;;-0.40;99.90;-0.80;96524.00;;;;5000128;28;20948;-73
2022/01/30 00:26:04;;;;;;;6.43;4.40;;;-0.40;99.90;-0.80;96532.00;;;;5004762;28;20432;-72
2022/01/30 00:28:52;;;;;;;12.43;4.33;;;-0.30;99.90;-0.80;96542.00;;;;5005752;28;20432;-73
2022/01/30 00:31:42;;;;;;;5.73;3.20;;;-0.30;99.90;-0.80;96541.00;;;;5005395;28;20955;-72
2022/01/30 00:34:51;;;;;;;9.50;4.10;;;-0.30;99.90;-0.60;96532.00;;;;5003979;28;20441;-72
2022/01/30 00:37:43;;;;;;;15.47;3.80;;;-0.20;99.90;-0.50;96538.00;;;;5001406;28;20413;-72
2022/01/30 00:40:53;;;;;;;4.40;3.20;;;-1.40;99.90;-0.30;96529.00;;;;5006960;28;20534;-72
2022/01/30 00:43:43;;;;;;;3.43;2.67;;;-0.10;99.90;-0.40;96553.00;;;;5006643;28;21072;-72
2022/01/30 00:46:32;;;;;;;5.50;4.27;;;0.00;99.90;-0.40;96547.00;;;;5005304;28;20429;-72
2022/01/30 00:49:20;;;;;;;4.67;3.13;;;0.00;99.90;-0.30;96577.00;;;;4997785;28;20417;-73
2022/01/30 00:52:10;;;;;;;4.50;2.37;;;0.10;99.90;0.10;96570.00;;;;5007517;28;20457;-73
2022/01/30 00:54:59;;;;;;;5.93;3.97;;;0.20;99.90;0.20;96560.00;;;;5013982;28;20456;-72
2022/01/30 00:57:48;;;;;;;2.83;1.83;;;0.30;99.90;0.30;96567.00;;;;5006137;28;21042;-73
2022/01/30 01:00:38;;;;;;;4.83;3.17;;;0.50;99.90;0.30;96571.00;;;;5006216;28;20425;-73
2022/01/30 01:03:27;;;;;;;7.30;3.20;;;0.60;99.90;0.50;96570.00;;;;5003209;28;20781;-73
2022/01/30 01:06:16;;;;;;;2.53;2.20;;;0.70;99.90;0.70;96568.00;;;;5006820;28;20441;-73
2022/01/30 01:09:06;;;;;;;5.13;2.83;;;0.70;99.90;0.80;96587.00;;;;5000183;28;20452;-73
2022/01/30 01:12:29;;;;;;;2.83;2.60;;;0.90;99.90;1.00;96587.00;;;;5006704;28;20825;-73
2022/01/30 01:24:46;;;;;;;4.37;2.47;;;1.40;99.90;1.40;96589.00;;;;5004190;28;20773;-73
2022/01/30 01:27:35;;;;;;;2.80;1.97;;;1.50;99.90;1.40;96600.00;;;;5006394;28;20452;-73
2022/01/30 01:30:24;;;;;;;0.80;0.80;;;1.50;99.90;1.10;96566.00;;;;5006135;28;20448;-72
2022/01/30 01:33:14;;;;;;;3.43;2.60;;;1.60;99.90;1.40;96586.00;;;;4999454;28;20437;-73
2022/01/30 01:36:05;;;;;;;2.27;1.60;;;1.60;99.90;1.70;96580.00;;;;5007556;28;20436;-73
2022/01/30 01:38:54;;;;;;;3.43;0.93;;;1.70;99.90;2.40;96570.00;;;;5006956;28;20820;-73
2022/01/30 01:41:43;;;;;;;2.47;1.33;;;1.90;99.90;2.80;96588.00;;;;5006211;28;20837;-73
2022/01/30 01:44:37;;;;;;;2.20;1.87;;;2.30;99.90;2.90;96596.00;;;;5005921;28;20457;-72
2022/01/30 01:47:30;;;;;;;1.23;1.13;;;2.60;99.90;3.30;96596.00;;;;5005791;28;20477;-73
2022/01/30 01:50:38;;;;;;;0.80;0.80;;;2.80;99.90;3.90;96599.00;;;;5002180;28;20448;-71
2022/01/30 01:53:28;;;;;;;1.80;1.00;;;3.20;99.90;4.40;96601.00;;;;5006338;28;20432;-74
2022/01/30 01:56:18;;;;;;;0.50;0.50;;;3.70;99.90;4.70;96598.00;;;;5006331;28;20441;-74
2022/01/30 01:59:07;;;;;;;0.40;0.40;;;4.00;99.90;4.90;96609.00;;;;5004663;28;20437;-73
2022/01/30 02:02:00;;;;;;;0.83;0.47;;;4.30;99.90;5.00;96587.00;;;;4996833;28;20606;-73
2022/01/30 02:04:49;;;;;;;0.40;0.40;;;4.70;99.90;5.20;96597.00;;;;5004189;28;20226;-76
2022/01/30 02:08:13;;;;;;;0.40;0.40;;;4.90;99.90;5.50;96620.00;;;;5007150;28;20666;-73
2022/01/30 02:11:07;;;;;;;0.40;0.40;;;5.10;99.90;5.90;96614.00;;;;5005923;28;20457;-73
2022/01/30 02:14:19;;;;;;;1.57;1.47;;;5.50;99.90;4.70;96608.00;;;;5006691;28;20206;-73
2022/01/30 02:26:27;;;;;;;3.30;1.57;;;4.90;99.90;4.40;96586.00;;;;4998440;28;20738;-73
2022/01/30 02:29:17;;;;;;;1.13;1.03;;;4.80;99.90;4.50;96605.00;;;;5004454;28;20198;-73
2022/01/30 02:32:07;;;;;;;2.90;1.50;;;4.70;99.90;4.30;96604.00;;;;5005586;28;20237;-73
2022/01/30 02:34:56;;;;;;;3.03;0.90;;;4.60;99.90;4.60;96592.00;;;;5005754;28;20704;-73
2022/01/30 02:37:47;;;;;;;1.33;1.03;;;4.60;99.90;5.00;96591.00;;;;4996888;28;20198;-73
2022/01/30 02:40:41;;;;;;;1.23;0.60;;;4.80;99.90;4.90;96587.00;;;;4995713;28;20201;-73
2022/01/30 02:43:34;;;;;;;1.50;0.80;;;4.80;99.90;4.90;96597.00;;;;5004870;28;20205;-73
2022/01/30 02:46:29;;;;;;;1.17;1.00;;;4.90;99.90;4.80;96610.00;;;;4998900;28;20279;-73
2022/01/30 02:49:40;;;;;;;3.73;1.20;;;4.60;99.90;5.00;96606.00;;;;5005822;28;20194;-75
2022/01/30 02:52:29;;;;;;;2.90;1.43;;;4.90;99.90;5.20;96594.00;;;;5003432;28;20229;-73
2022/01/30 02:55:18;;;;;;;2.77;0.60;;;5.00;99.90;5.30;96588.00;;;;5004569;28;20202;-74
2022/01/30 02:58:08;;;;;;;1.40;1.00;;;5.10;99.90;5.40;96596.00;;;;5006093;28;20590;-73
2022/01/30 03:00:57;;;;;;;2.17;0.70;;;5.20;99.90;5.50;96593.00;;;;5003213;28;20301;-74
2022/01/30 03:03:46;;;;;;;0.60;0.60;;;5.30;99.90;5.60;96578.00;;;;4996801;28;20579;-74
2022/01/30 03:06:36;;;;;;;1.47;0.93;;;5.40;99.90;5.70;96574.00;;;;4999054;28;20237;-73
2022/01/30 03:09:24;;;;;;;1.23;1.13;;;5.50;99.90;5.50;96570.00;;;;5004138;28;20206;-75
2022/01/30 03:12:13;;;;;;;2.07;1.30;;;5.60;99.90;5.40;96574.00;;;;4999716;28;20218;-73
2022/01/30 03:15:04;;;;;;;1.37;1.10;;;5.60;99.90;5.50;96561.00;;;;5004563;28;20214;-73
2022/01/30 03:17:53;;;;;;;2.13;1.07;;;5.60;99.90;5.50;96567.00;;;;5004136;28;20217;-73
2022/01/30 03:20:42;;;;;;;0.87;0.87;;;5.60;99.90;5.50;96565.00;;;;5004454;28;20222;-74
2022/01/30 03:23:31;;;;;;;1.00;0.87;;;5.60;99.90;5.70;96553.00;;;;5004588;28;20198;-74
2022/01/30 03:26:20;;;;;;;0.47;0.47;;;5.60;99.90;6.00;96557.00;;;;5004348;28;20233;-73
2022/01/30 03:29:10;;;;;;;1.03;0.70;;;5.70;99.90;6.10;96549.00;;;;5004158;28;20213;-73
2022/01/30 03:32:01;;;;;;;0.50;0.50;;;5.80;99.90;6.10;96543.00;;;;5005504;28;20305;-73
2022/01/30 03:34:49;;;;;;;0.70;0.60;;;5.90;99.90;6.10;96565.00;;;;4995398;28;20209;-73
2022/01/30 03:37:38;;;;;;;0.30;0.30;;;6.00;99.90;6.80;96584.00;;;;4995393;28;20206;-72
2022/01/30 03:40:27;;;;;;;0.20;0.20;;;6.30;99.90;7.70;96570.00;;;;5003087;28;20229;-73
2022/01/30 03:43:17;;;;;;;0.20;0.20;;;6.60;99.90;8.20;96538.00;;;;5003447;28;20561;-73
2022/01/30 03:46:06;;;;;;;0.20;0.20;;;7.10;99.90;8.00;96564.00;;;;4997431;28;20490;-73
2022/01/30 03:48:56;;;;;;;0.30;0.30;;;7.40;99.90;8.60;96570.00;;;;4999903;28;20673;-72
2022/01/30 03:51:44;;;;;;;0.20;0.20;;;7.90;99.90;9.10;96559.00;;;;5002576;28;20609;-73
2022/01/30 03:54:34;;;;;;;0.30;0.20;;;8.40;99.90;9.10;96575.00;;;;5005152;28;20214;-73
2022/01/30 03:57:23;;;;;;;0.20;0.20;;;8.70;99.90;8.80;96561.00;;;;5005110;28;20260;-73
2022/01/30 04:00:13;;;;;;;0.30;0.20;;;8.80;99.60;8.40;96569.00;;;;5004419;28;20198;-72
2022/01/30 04:03:02;;;;;;;0.27;0.27;;;8.70;99.90;8.10;96587.00;;;;5002298;28;20198;-73
2022/01/30 04:05:52;;;;;;;0.20;0.20;;;8.50;99.80;8.40;96541.00;;;;5002474;28;20234;-74
2022/01/30 04:08:43;;;;;;;0.20;0.20;;;8.30;98.40;8.80;96538.00;;;;5005077;28;20970;-72
2022/01/30 04:11:32;;;;;;;0.20;0.20;;;8.50;97.30;8.90;96546.00;;;;5002327;28;20248;-73
2022/01/30 04:14:22;;;;;;;0.30;0.30;;;8.70;96.60;9.00;96538.00;;;;5003712;28;20213;-72
2022/01/30 04:17:13;;;;;;;0.20;0.20;;;8.80;95.90;8.70;96538.00;;;;4997881;28;20211;-74
2022/01/30 04:20:02;;;;;;;0.27;0.27;;;8.80;95.70;8.30;96536.00;;;;4995986;28;20221;-73
2022/01/30 04:22:53;;;;;;;0.30;0.30;;;8.60;95.80;8.30;96529.00;;;;4994196;28;20210;-73
2022/01/30 04:25:41;;;;;;;0.20;0.20;;;8.50;95.70;8.00;96535.00;;;;5005348;28;20229;-74
2022/01/30 04:28:31;;;;;;;1.47;0.30;;;8.30;95.60;8.00;96542.00;;;;5004850;28;20677;-73
2022/01/30 04:31:20;;;;;;;0.40;0.40;;;8.20;95.50;7.70;96560.00;;;;5004466;28;20225;-75
2022/01/30 04:34:10;;;;;;;0.20;0.20;;;8.00;95.70;7.50;96554.00;;;;5000816;28;20214;-74
2022/01/30 04:37:02;;;;;;;0.30;0.30;;;7.90;96.20;7.20;96517.00;;;;5003642;28;20217;-73
2022/01/30 04:40:16;;;;;;;0.20;0.20;;;7.70;96.90;7.70;96528.00;;;;5003186;28;20376;-73
2022/01/30 04:52:49;;;;;;;0.20;0.20;;;7.70;95.70;7.80;96523.00;;;;5002709;28;20229;-75
2022/01/30 04:59:05;;;;;;;0.27;0.27;;;7.70;95.10;7.60;96451.00;;;;5006904;28;20390;-77
2022/01/30 05:02:02;;;;;;;0.30;0.30;;;7.60;94.60;8.00;96517.00;;;;4997704;28;20232;-73
2022/01/30 05:05:05;;;;;;;0.30;0.30;;;7.70;93.50;8.10;96510.00;;;;5006248;28;20685;-73
2022/01/30 05:07:57;;;;;;;0.20;0.20;;;7.80;93.00;7.90;96506.00;;;;5007804;28;20665;-74
2022/01/30 05:10:47;;;;;;;0.77;0.40;;;7.80;93.10;8.10;96532.00;;;;5006958;28;20225;-75
2022/01/30 05:13:40;;;;;;;0.30;0.30;;;7.90;93.10;7.90;96532.00;;;;5005530;28;20209;-74
2022/01/30 05:16:31;;;;;;;0.40;0.40;;;7.90;93.10;7.60;96529.00;;;;5008944;28;20570;-74
2022/01/30 05:19:20;;;;;;;0.30;0.30;;;7.80;93.30;7.20;96491.00;;;;5006984;28;20592;-75
2022/01/30 05:22:11;;;;;;;0.53;0.53;;;7.70;93.30;6.90;96492.00;;;;5007730;28;20242;-73
2022/01/30 05:25:01;;;;;;;2.20;0.43;;;7.50;93.60;6.80;96516.00;;;;5007420;28;20214;-74
2022/01/30 05:27:52;;;;;;;0.30;0.30;;;7.20;94.10;6.80;96502.00;;;;5007440;28;20267;-73
2022/01/30 05:30:42;;;;;;;5.47;3.40;;;8.50;95.30;6.60;96506.00;;;;5007234;28;20232;-74
2022/01/30 05:33:31;;;;;;;2.20;1.87;;;7.00;95.10;6.40;96510.00;;;;5006134;28;20272;-73
2022/01/30 05:36:22;;;;;;;0.80;0.67;;;6.80;95.40;6.30;96508.00;;;;5008259;28;20210;-73
2022/01/30 05:39:12;;;;;;;0.30;0.30;;;6.60;95.80;6.40;96518.00;;;;5007146;28;20218;-74
2022/01/30 05:42:01;;;;;;;0.27;0.27;;;6.60;96.40;6.10;96516.00;;;;5007376;28;20534;-69
2022/01/30 05:44:59;;;;;;;0.90;0.47;;;6.50;96.90;6.40;96527.00;;;;5005837;28;20218;-69
2022/01/30 05:47:50;;;;;;;0.33;0.30;;;6.50;96.80;6.30;96530.00;;;;5001277;28;20230;-70
2022/01/30 05:50:40;;;;;;;0.60;0.30;;;6.40;96.90;6.20;96547.00;;;;5000843;28;20313;-71
2022/01/30 05:53:28;;;;;;;0.33;0.33;;;6.40;97.10;6.20;96542.00;;;;5006087;28;20202;-71
2022/01/30 05:56:17;;;;;;;0.40;0.20;;;6.30;97.70;6.60;96550.00;;;;5007810;28;20583;-70
2022/01/30 05:59:06;;;;;;;0.23;0.23;;;6.40;97.80;6.60;96542.00;;;;5007265;28;20217;-72
2022/01/30 06:01:56;;;;;;;0.20;0.20;;;6.50;97.90;6.90;96551.00;;;;5002418;28;20226;-73
2022/01/30 06:04:45;;;;;;;0.20;0.20;;;6.60;98.00;7.20;96543.00;;;;5013488;28;20212;-73
2022/01/30 06:07:35;;;;;;;0.43;0.40;;;6.80;98.00;7.00;96539.00;;;;5006762;28;20704;-73
2022/01/30 06:10:26;;;;;;;0.80;0.60;;;6.90;97.70;6.90;96542.00;;;;5006939;28;20202;-73
2022/01/30 06:13:15;;;;;;;0.40;0.40;;;6.90;97.60;6.50;96537.00;;;;5006197;28;20243;-73
2022/01/30 06:16:04;;;;;;;0.50;0.40;;;6.90;97.60;6.30;96519.00;;;;5008096;28;20198;-73
2022/01/30 06:18:55;;;;;;;0.30;0.30;;;6.70;97.40;6.20;96520.00;;;;5001900;28;20210;-73
2022/01/30 06:21:43;;;;;;;0.30;0.23;;;6.60;98.00;6.30;96516.00;;;;5006084;28;20218;-73
2022/01/30 06:24:32;;;;;;;0.30;0.30;;;6.50;99.00;6.40;96511.00;;;;4993893;28;20206;-73
2022/01/30 06:27:21;;;;;;;0.30;0.30;;;6.50;99.20;6.30;96521.00;;;;5008489;28;20257;-73
2022/01/30 06:30:11;;;;;;;0.20;0.20;;;6.50;99.60;6.20;96521.00;;;;5005189;28;20198;-73
2022/01/30 06:33:01;;;;;;;0.30;0.30;;;6.40;99.50;6.00;96520.00;;;;5005969;28;21115;-73
2022/01/30 06:35:51;;;;;;;0.47;0.30;;;6.30;99.80;5.90;96522.00;;;;5005617;28;20206;-75
2022/01/30 06:38:40;;;;;;;0.30;0.30;;;6.20;99.90;6.30;96520.00;;;;5005977;28;20206;-77
2022/01/30 06:41:29;;;;;;;1.00;0.40;;;6.20;99.90;6.20;96525.00;;;;5005021;28;20222;-77
2022/01/30 06:44:18;;;;;;;0.33;0.33;;;6.20;99.90;6.20;96505.00;;;;4995620;28;20210;-77
2022/01/30 06:47:07;;;;;;;0.43;0.30;;;6.20;99.90;6.80;96521.00;;;;4993603;28;20230;-73
2022/01/30 06:49:57;;;;;;;0.20;0.20;;;6.40;99.90;6.70;96499.00;;;;5004448;28;20446;-74
2022/01/30 06:52:47;;;;;;;0.20;0.20;;;6.50;99.90;6.90;96507.00;;;;5001736;28;20194;-77
2022/01/30 06:55:38;;;;;;;0.30;0.30;;;6.60;99.90;7.00;96504.00;;;;4994996;28;20209;-76
2022/01/30 06:58:27;;;;;;;0.20;0.20;;;6.80;99.90;7.10;96491.00;;;;5004668;28;20202;-76
2022/01/30 07:01:16;;;;;;;0.20;0.20;;;6.90;99.50;7.10;96502.00;;;;5003438;28;20699;-74
2022/01/30 07:04:05;;;;;;;0.20;0.20;;;7.00;99.30;7.30;96514.00;;;;5004292;28;20508;-74
2022/01/30 07:06:54;;;;;;;0.30;0.30;;;7.10;99.10;7.50;96509.00;;;;4999687;28;20237;-74
2022/01/30 07:09:44;;;;;;;0.57;0.40;;;7.20;98.30;7.60;96516.00;;;;5004540;28;20427;-74
2022/01/30 07:12:33;;;;;;;0.20;0.20;;;7.30;98.00;7.70;96531.00;;;;5004896;28;20226;-74
2022/01/30 07:15:22;;;;;;;0.30;0.30;;;7.40;97.80;7.90;96509.00;;;;5006064;28;20206;-74
2022/01/30 07:18:11;;;;;;;0.30;0.30;;;7.50;97.70;8.00;96523.00;;;;4996620;28;20209;-73
2022/01/30 07:21:00;;;;;;;0.23;0.23;;;7.70;97.00;8.10;96527.00;;;;5005767;28;20613;-74
2022/01/30 07:23:49;;;;;;;0.40;0.40;;;7.80;96.50;8.10;96525.00;;;;5005948;28;20198;-73
2022/01/30 07:26:39;;;;;;;0.30;0.30;;;7.90;96.70;8.50;96514.00;;;;5006412;28;20202;-74
2022/01/30 07:29:28;;;;;;;0.20;0.20;;;8.00;94.50;9.00;96548.00;;;;5003813;28;20194;-73
2022/01/30 07:32:17;;;;;;;0.20;0.20;;;8.40;91.50;9.20;96523.00;;;;5002728;28;20221;-74
2022/01/30 07:35:07;;;;;;;0.20;0.20;;;8.70;90.90;9.10;96486.00;;;;4997550;28;20775;-75
2022/01/30 07:37:56;;;;;;;0.57;0.40;;;8.80;91.70;9.20;96531.00;;;;5004523;28;20204;-74
2022/01/30 07:40:44;;;;;;;0.20;0.20;;;8.90;91.90;9.30;96518.00;;;;4991587;28;20221;-74
2022/01/30 07:43:35;;;;;;;0.20;0.20;;;9.00;90.50;9.50;96484.00;;;;5005607;28;20213;-77
2022/01/30 07:46:24;;;;;;;0.23;0.23;;;9.10;88.60;9.80;96507.00;;;;4993037;28;20229;-73
2022/01/30 07:49:13;;;;;;;0.30;0.30;;;9.30;84.40;10.10;96520.00;;;;5001565;28;20210;-73
2022/01/30 07:52:01;;;;;;;0.20;0.10;;;9.40;81.50;10.10;96490.00;;;;4993429;28;20214;-74
2022/01/30 07:54:51;;;;;;;2.50;0.47;;;9.60;78.70;10.10;96523.00;;;;4999270;28;20213;-73
2022/01/30 07:57:42;;;;;;;0.20;0.20;;;9.70;76.70;10.20;96509.00;;;;5005796;28;20194;-72
2022/01/30 08:00:32;;;;;;;1.57;1.50;;;9.90;74.30;10.40;96496.00;;;;4996265;28;20207;-72
2022/01/30 08:03:22;;;;;;;0.40;0.30;;;10.00;74.10;10.60;96519.00;;;;4997486;28;20194;-73
2022/01/30 08:06:11;;;;;;;0.20;0.20;;;10.20;72.90;10.50;96511.00;;;;4997277;28;20219;-74
2022/01/30 08:09:00;;;;;;;0.20;0.20;;;10.30;72.40;10.70;96524.00;;;;4995843;28;20245;-72
2022/01/30 08:11:49;;;;;;;3.90;0.40;;;10.40;70.50;10.80;96510.00;;;;4995384;28;20364;-76
2022/01/30 08:14:38;;;;;;;0.30;0.20;;;10.50;69.60;10.80;96511.00;;;;4994265;28;20213;-73
2022/01/30 08:17:31;;;;;;;0.83;0.20;;;10.50;66.70;11.00;96524.00;;;;5003966;28;20206;-76
2022/01/30 08:20:24;;;;;;;0.97;0.50;;;10.70;67.40;10.90;96541.00;;;;5003357;28;20869;-75
2022/01/30 08:23:16;;;;;;;0.20;0.20;;;10.80;65.90;11.20;96542.00;;;;5001568;28;20209;-75
2022/01/30 08:26:05;;;;;;;2.20;0.20;;;10.80;66.90;11.00;96532.00;;;;4994636;28;20213;-74
2022/01/30 08:28:54;;;;;;;0.37;0.27;;;10.80;66.80;11.10;96541.00;;;;5008688;28;20234;-73
2022/01/30 08:31:43;;;;;;;0.20;0.20;;;10.90;68.00;10.80;96545.00;;;;5003314;28;20406;-74
2022/01/30 08:34:35;;;;;;;3.47;0.40;;;10.90;68.10;11.00;96567.00;;;;5003888;28;20778;-74
2022/01/30 08:37:24;;;;;;;1.90;0.60;;;10.90;69.30;11.00;96539.00;;;;4988002;28;20487;-73
2022/01/30 08:40:15;;;;;;;0.20;0.20;;;10.90;69.70;10.70;96564.00;;;;4993400;28;20690;-75
2022/01/30 08:43:04;;;;;;;0.20;0.20;;;10.80;69.40;10.90;96541.00;;;;4993630;28;20213;-72
2022/01/30 08:45:54;;;;;;;0.40;0.20;;;10.80;69.40;11.10;96564.00;;;;4995472;28;20216;-73
2022/01/30 08:48:43;;;;;;;1.67;0.20;;;10.90;69.90;10.90;96555.00;;;;4996186;28;20226;-73
2022/01/30 08:51:33;;;;;;;0.20;0.20;;;10.90;68.80;11.00;96543.00;;;;4992961;28;20226;-75
2022/01/30 08:54:22;;;;;;;0.53;0.30;;;10.90;68.80;11.10;96543.00;;;;4992075;28;20202;-75
2022/01/30 08:57:11;;;;;;;0.20;0.20;;;10.90;67.90;11.00;96528.00;;;;4994859;28;20213;-74
2022/01/30 09:00:05;;;;;;;0.20;0.20;;;10.90;65.50;11.20;96544.00;;;;4994451;28;20621;-76
2022/01/30 09:02:57;;;;;;;0.20;0.20;;;11.00;64.10;11.30;96561.00;;;;4994579;28;20241;-73
2022/01/30 09:05:46;;;;;;;0.20;0.20;;;11.00;64.30;11.40;96524.00;;;;4989803;28;20210;-74
2022/01/30 09:08:37;;;;;;;0.30;0.20;;;11.10;64.10;11.30;96569.00;;;;4990590;28;20576;-71
2022/01/30 09:11:26;;;;;;;0.43;0.30;;;11.20;63.20;11.20;96576.00;;;;4989736;28;20232;-73
2022/01/30 09:14:15;;;;;;;0.20;0.20;;;11.20;61.70;11.30;96563.00;;;;4996212;28;20337;-74
2022/01/30 09:17:11;;;;;;;0.40;0.30;;;11.20;62.30;11.30;96594.00;;;;4995281;28;20439;-74
2022/01/30 09:20:05;;;;;;;0.30;0.30;;;11.30;61.70;11.30;96579.00;;;;4993470;28;20209;-74
2022/01/30 09:22:54;;;;;;;0.43;0.30;;;11.30;61.40;11.60;96591.00;;;;4992185;28;20711;-74
2022/01/30 09:25:45;;;;;;;0.30;0.20;;;11.30;61.40;11.70;96581.00;;;;5007314;28;20317;-73
2022/01/30 09:28:34;;;;;;;0.20;0.20;;;11.40;61.50;11.50;96529.00;;;;5006158;28;20240;-72
2022/01/30 09:31:23;;;;;;;0.20;0.20;;;11.40;60.40;11.90;96606.00;;;;5004477;28;20728;-73
2022/01/30 09:34:12;;;;;;;3.10;0.40;;;11.40;61.00;11.90;96593.00;;;;5005280;28;20202;-72
2022/01/30 09:37:01;;;;;;;0.93;0.30;;;11.60;60.50;11.90;96590.00;;;;5007564;28;20205;-72
2022/01/30 09:39:49;;;;;;;0.30;0.20;;;11.60;59.00;11.90;96602.00;;;;5005961;28;20210;-72
2022/01/30 09:42:44;;;;;;;1.80;0.30;;;11.70;58.20;11.90;96602.00;;;;5005221;28;20230;-75
2022/01/30 09:45:33;;;;;;;0.97;0.40;;;11.70;57.80;12.00;96618.00;;;;5006408;28;20213;-73
2022/01/30 09:48:24;;;;;;;1.57;1.43;;;11.80;56.90;12.00;96597.00;;;;5000213;28;20701;-78
2022/01/30 09:51:13;;;;;;;0.30;0.30;;;11.80;56.30;12.30;96632.00;;;;5002189;28;20218;-75
2022/01/30 09:54:04;;;;;;;1.33;0.70;;;11.90;56.50;12.00;96654.00;;;;5005494;28;20658;-77
2022/01/30 09:56:53;;;;;;;1.47;0.57;;;12.00;55.80;12.20;96637.00;;;;4994714;28;20594;-76
2022/01/30 09:59:44;;;;;;;2.63;0.40;;;12.00;56.00;12.30;96634.00;;;;5007853;28;20205;-77
2022/01/30 10:02:33;;;;;;;0.60;0.20;;;12.10;56.50;12.30;96641.00;;;;5000173;28;20217;-74
2022/01/30 10:05:21;;;;;;;0.30;0.30;;;12.20;56.50;12.10;96639.00;;;;5006095;28;20257;-79
2022/01/30 10:08:28;;;;;;;0.37;0.23;;;12.10;56.40;12.50;96631.00;;;;5008945;28;20713;-81
2022/01/30 10:11:31;;;;;;;0.43;0.20;;;12.10;57.50;12.80;96649.00;;;;5010592;28;20252;-81
2022/01/30 10:14:20;;;;;;;0.50;0.40;;;12.30;57.30;12.30;96669.00;;;;5007144;28;20206;-76
2022/01/30 10:17:30;;;;;;;1.40;0.27;;;12.40;56.80;12.60;96683.00;;;;5000034;28;20233;-77
2022/01/30 10:20:22;;;;;;;0.20;0.20;;;11.20;56.90;11.50;96706.00;;;;5010411;28;20256;-79
2022/01/30 10:23:11;;;;;;;0.67;0.20;;;12.20;56.80;11.70;96698.00;;;;5001603;28;20288;-81
2022/01/30 10:26:07;;;;;;;2.20;0.50;;;11.80;57.60;12.10;96695.00;;;;5011895;28;20194;-77
2022/01/30 10:28:57;;;;;;;2.30;0.30;;;11.90;57.70;12.60;96697.00;;;;5008750;28;20230;-79
2022/01/30 10:32:00;;;;;;;0.20;0.20;;;12.10;58.00;12.50;96684.00;;;;5007788;28;20602;-78
2022/01/30 10:35:00;;;;;;;0.27;0.27;;;12.20;58.70;12.70;96676.00;;;;5007748;28;20217;-79
2022/01/30 10:37:51;;;;;;;0.63;0.37;;;12.30;58.60;12.50;96652.00;;;;5008686;28;20233;-77
2022/01/30 10:41:09;;;;;;;0.60;0.20;;;12.30;58.50;12.10;96682.00;;;;5009999;28;21002;-80
2022/01/30 10:44:01;;;;;;;0.20;0.20;;;12.50;57.50;12.10;96700.00;;;;5001888;28;20210;-76
2022/01/30 10:46:52;;;;;;;0.73;0.30;;;12.50;57.50;12.90;96676.00;;;;5001941;28;20681;-79
2022/01/30 10:49:46;;;;;;;1.40;0.50;;;12.50;58.10;13.40;96683.00;;;;5010889;28;20604;-79
2022/01/30 10:52:49;;;;;;;3.90;0.40;;;13.00;57.60;12.90;96660.00;;;;5009627;28;20225;-79
2022/01/30 10:55:43;;;;;;;0.40;0.40;;;13.30;55.80;11.40;96659.00;;;;5009216;28;20799;-79
2022/01/30 10:58:31;;;;;;;0.97;0.53;;;12.60;56.50;11.90;96701.00;;;;5010536;28;20527;-79
2022/01/30 11:01:23;;;;;;;0.30;0.30;;;12.40;57.70;12.50;96667.00;;;;5008797;28;20226;-80
2022/01/30 11:04:24;;;;;;;0.70;0.50;;;12.50;58.20;13.40;96651.00;;;;5009011;28;20213;-80
2022/01/30 11:07:15;;;;;;;0.97;0.20;;;12.90;58.20;13.60;96634.00;;;;5008729;28;20198;-82
2022/01/30 11:10:11;;;;;;;0.30;0.20;;;13.30;58.30;12.80;96654.00;;;;5009261;28;20236;-78
2022/01/30 11:13:08;;;;;;;0.30;0.20;;;13.70;56.80;13.80;96617.00;;;;4989645;28;20407;-80
2022/01/30 11:16:55;;;;;;;0.20;0.10;;;13.90;56.70;14.10;96616.00;;;;4994317;28;20198;-80
2022/01/30 11:19:08;;;;;;;0.40;0.20;;;14.10;55.70;13.80;96615.00;;;;4991701;28;20221;-80
2022/01/30 11:22:03;;;;;;;0.40;0.40;;;14.30;54.00;13.10;96656.00;;;;4992847;28;20746;-77
2022/01/30 11:25:00;;;;;;;2.93;0.73;;;14.30;53.30;13.20;96651.00;;;;4991148;28;20584;-79
2022/01/30 11:27:51;;;;;;;1.33;0.40;;;13.90;52.50;14.10;96641.00;;;;4992807;28;20232;-82
2022/01/30 11:30:46;;;;;;;0.20;0.20;;;14.30;52.80;15.00;96653.00;;;;4992585;28;20225;-76
2022/01/30 11:33:36;;;;;;;0.50;0.30;;;14.50;53.10;14.40;96644.00;;;;4991133;28;20214;-79
2022/01/30 11:36:25;;;;;;;0.20;0.10;;;14.90;51.00;15.10;96617.00;;;;4996557;28;20942;-77
2022/01/30 11:39:19;;;;;;;0.20;0.10;;;15.10;51.20;13.70;96644.00;;;;4990308;28;20734;-78
2022/01/30 11:42:17;;;;;;;0.40;0.20;;;15.00;51.70;13.40;96628.00;;;;4991330;28;20760;-77
2022/01/30 11:45:24;;;;;;;0.40;0.20;;;14.80;51.20;15.00;96656.00;;;;4989192;28;20669;-73
2022/01/30 11:48:21;;;;;;;1.90;0.30;;;14.90;52.90;14.30;96644.00;;;;4984832;28;20284;-79
2022/01/30 11:51:10;;;;;;;0.20;0.10;;;15.20;51.30;15.60;96643.00;;;;4989973;28;20360;-75
2022/01/30 11:53:59;;;;;;;0.20;0.20;;;15.50;52.40;14.50;96620.00;;;;4989866;28;20203;-75
2022/01/30 11:56:56;;;;;;;0.40;0.30;;;15.50;52.40;16.30;96635.00;;;;4988914;28;20500;-71
2022/01/30 11:59:46;;;;;;;0.30;0.20;;;15.80;52.40;16.00;96661.00;;;;4989156;28;20041;-70
2022/01/30 12:02:37;;;;;;;0.30;0.17;;;16.10;51.20;14.70;96710.00;;;;4993678;28;20406;-78
2022/01/30 12:05:35;;;;;;;0.40;0.30;;;16.00;49.80;13.80;96746.00;;;;4995471;28;20920;-79
2022/01/30 12:08:45;;;;;;;2.00;0.30;;;15.60;49.50;12.70;96710.00;;;;4993340;28;20405;-79
2022/01/30 12:12:07;;;;;;;0.90;0.10;;;14.50;51.20;12.20;96686.00;;;;4995765;28;20409;-76
2022/01/30 12:15:00;;;;;;;0.70;0.20;;;14.20;52.20;12.30;96664.00;;;;4987523;28;20402;-81
2022/01/30 12:17:53;;;;;;;0.20;0.20;;;14.00;52.60;15.00;96691.00;;;;4999449;28;20409;-81
2022/01/30 12:21:04;;;;;;;0.70;0.20;;;14.30;53.70;15.00;96732.00;;;;5001704;28;20404;-80
2022/01/30 12:23:53;;;;;;;0.20;0.10;;;14.90;53.00;14.20;96721.00;;;;5000736;28;20409;-81
2022/01/30 12:26:52;;;;;;;0.40;0.20;;;15.20;54.10;13.30;96734.00;;;;5002047;28;20405;-76
2022/01/30 12:29:44;;;;;;;0.50;0.20;;;15.20;53.00;14.60;96729.00;;;;5006109;28;20831;-80
2022/01/30 12:32:33;;;;;;;0.40;0.40;;;15.00;53.50;13.40;96687.00;;;;4997204;28;20399;-73
2022/01/30 12:35:23;;;;;;;0.40;0.20;;;14.80;54.40;15.10;96711.00;;;;4992560;28;20405;-75
2022/01/30 12:38:12;;;;;;;0.33;0.20;;;14.90;54.50;16.00;96678.00;;;;4993043;28;20479;-78
2022/01/30 12:41:01;;;;;;;0.40;0.10;;;15.50;53.90;16.50;96701.00;;;;4985872;28;20414;-76
2022/01/30 12:43:57;;;;;;;0.38;0.20;;;16.20;53.20;14.50;96660.00;;;;4991767;28;20415;-78
2022/01/30 12:46:49;;;;;;;0.20;0.10;;;16.10;51.80;16.10;96712.00;;;;4992448;28;22140;-75
2022/01/30 12:49:43;;;;;;;1.57;0.20;;;16.20;52.10;16.70;96709.00;;;;4989803;28;20226;-77
2022/01/30 12:52:35;;;;;;;0.40;0.20;;;16.60;51.00;16.00;96708.00;;;;4988584;28;20223;-78
2022/01/30 12:55:23;;;;;;;2.57;0.47;;;16.60;49.80;16.60;96663.00;;;;4990173;28;20932;-78
2022/01/30 12:58:13;;;;;;;0.50;0.20;;;16.80;49.80;13.80;96682.00;;;;4993416;28;20201;-79
2022/01/30 13:01:14;;;;;;;0.30;0.10;;;16.70;48.20;15.30;96688.00;;;;4986607;28;20237;-73
2022/01/30 13:04:06;;;;;;;0.20;0.10;;;16.30;49.50;13.90;96680.00;;;;4988819;28;20685;-76
2022/01/30 13:06:56;;;;;;;0.60;0.10;;;15.60;50.10;14.40;96669.00;;;;4992991;28;20198;-75
2022/01/30 13:09:46;;;;;;;0.30;0.20;;;15.60;50.00;15.80;96725.00;;;;4987461;28;20229;-76
2022/01/30 13:12:35;;;;;;;0.50;0.20;;;15.80;50.50;14.80;96739.00;;;;4997764;28;20230;-77
2022/01/30 13:15:25;;;;;;;0.40;0.20;;;15.50;50.30;13.60;96735.00;;;;4997384;28;20194;-79
2022/01/30 13:18:14;;;;;;;1.00;0.60;;;15.20;50.40;14.10;96731.00;;;;4996006;28;20259;-76
2022/01/30 13:21:06;;;;;;;4.87;2.33;;;14.70;51.20;15.80;96751.00;;;;4988820;28;20268;-77
2022/01/30 13:23:56;;;;;;;0.83;0.40;;;14.90;52.00;14.20;96687.00;;;;4990562;28;20206;-74